Time;durP1;ratioP1;P1;durP2;ratioP2;P2;SDS_P1;SDS_P2;PMS_P1;PMS_P2;Temp;Humidity;BMP_temperature;BMP_pressure;BME280_temperature;BME280_humidity;BME280_pressure;Samples;Min_cycle;Max_cycle;Signal;HPM_P1;HPM_P2
2022/07/16 00:01:24;;;;;;;9.00;2.67;;;16.30;99.90;;;;;;5062944;28;20220;-79
2022/07/16 00:04:14;;;;;;;4.03;2.17;;;16.30;99.90;;;;;;5047476;28;20212;-79
2022/07/16 00:07:03;;;;;;;6.45;2.50;;;16.20;99.90;;;;;;5057464;28;20217;-79
2022/07/16 00:09:51;;;;;;;4.32;2.47;;;16.30;99.90;;;;;;5059958;28;20227;-79
2022/07/16 00:12:40;;;;;;;4.80;2.60;;;16.20;99.90;;;;;;5055944;28;20270;-79
2022/07/16 00:15:29;;;;;;;4.82;2.28;;;16.00;99.90;;;;;;5043348;28;20761;-79
2022/07/16 00:21:26;;;;;;;3.72;2.13;;;16.00;99.90;;;;;;5059392;28;20236;-79
2022/07/16 00:24:16;;;;;;;7.95;2.70;;;16.00;99.90;;;;;;5058965;28;20227;-79
2022/07/16 00:27:05;;;;;;;4.10;2.17;;;16.00;99.90;;;;;;5056881;28;20575;-80
2022/07/16 00:29:54;;;;;;;4.97;2.42;;;16.00;99.90;;;;;;5044774;28;20223;-80
2022/07/16 00:32:43;;;;;;;4.50;2.05;;;15.90;99.90;;;;;;5063802;28;20487;-80
2022/07/16 00:35:31;;;;;;;11.60;2.85;;;16.10;99.90;;;;;;5062705;28;20208;-79
2022/07/16 00:38:22;;;;;;;7.63;2.50;;;16.10;99.90;;;;;;5045392;28;20244;-79
2022/07/16 00:41:16;;;;;;;4.57;1.98;;;16.00;99.90;;;;;;5058172;28;20216;-79
2022/07/16 00:44:07;;;;;;;5.53;2.28;;;16.10;99.90;;;;;;5039853;28;20220;-79
2022/07/16 00:46:55;;;;;;;5.55;2.22;;;16.10;99.90;;;;;;5049214;28;20325;-79
2022/07/16 00:49:44;;;;;;;5.93;2.10;;;16.20;99.90;;;;;;5046675;28;20784;-79
2022/07/16 00:52:35;;;;;;;7.47;2.40;;;16.30;99.90;;;;;;5052836;28;20702;-79
2022/07/16 00:55:26;;;;;;;3.97;2.10;;;16.30;99.90;;;;;;5050274;28;20232;-79
2022/07/16 00:58:15;;;;;;;4.28;2.35;;;16.20;99.90;;;;;;5057125;28;20228;-80
2022/07/16 01:01:04;;;;;;;6.78;2.65;;;16.10;99.90;;;;;;5045200;28;20235;-80
2022/07/16 01:03:55;;;;;;;5.40;2.35;;;16.00;99.90;;;;;;5059326;28;20228;-80
2022/07/16 01:06:46;;;;;;;8.23;2.17;;;16.10;99.90;;;;;;5042296;28;20698;-80
2022/07/16 01:09:35;;;;;;;6.82;2.20;;;16.20;99.90;;;;;;5056790;28;20417;-80
2022/07/16 01:12:26;;;;;;;4.57;2.17;;;16.30;99.90;;;;;;5050612;28;20259;-80
2022/07/16 01:15:15;;;;;;;3.15;2.03;;;16.30;99.90;;;;;;5068542;28;20220;-80
2022/07/16 01:18:03;;;;;;;5.68;2.10;;;16.30;99.90;;;;;;5057499;28;20263;-80
2022/07/16 01:20:52;;;;;;;3.92;1.98;;;16.40;99.90;;;;;;5062519;28;20248;-80
2022/07/16 01:23:45;;;;;;;2.67;1.83;;;16.40;99.90;;;;;;5067410;28;20220;-82
2022/07/16 01:26:34;;;;;;;3.63;1.98;;;;;;;;;;5054782;28;20228;-81
2022/07/16 01:29:23;;;;;;;4.50;1.73;;;16.20;99.90;;;;;;5059841;28;20224;-81
2022/07/16 01:32:11;;;;;;;6.05;2.78;;;16.30;99.90;;;;;;5058881;28;20216;-80
2022/07/16 01:35:00;;;;;;;4.75;2.63;;;16.40;99.90;;;;;;5074611;28;20341;-80
2022/07/16 01:37:49;;;;;;;5.57;2.53;;;16.50;99.90;;;;;;5047880;28;20621;-80
2022/07/16 01:40:39;;;;;;;4.07;1.90;;;16.50;99.90;;;;;;5045077;28;22142;-80
2022/07/16 01:43:29;;;;;;;4.70;2.10;;;16.40;99.90;;;;;;5061384;28;20224;-80
2022/07/16 01:46:17;;;;;;;6.60;1.77;;;16.50;99.90;;;;;;5045894;28;20227;-81
2022/07/16 01:49:06;;;;;;;4.57;2.03;;;16.40;99.90;;;;;;5050779;28;20216;-81
2022/07/16 01:51:55;;;;;;;3.25;1.90;;;16.40;99.90;;;;;;5045489;28;20216;-80
2022/07/16 01:54:45;;;;;;;3.78;2.13;;;16.50;99.90;;;;;;5059716;28;20231;-80
2022/07/16 01:57:35;;;;;;;4.50;2.10;;;16.40;99.90;;;;;;5048137;28;20240;-80
2022/07/16 02:00:24;;;;;;;5.88;1.83;;;16.40;99.90;;;;;;5060644;28;20231;-79
2022/07/16 02:03:13;;;;;;;4.80;2.40;;;16.40;99.90;;;;;;5073581;28;20240;-79
2022/07/16 02:06:02;;;;;;;5.80;2.00;;;16.40;99.90;;;;;;5059877;28;20224;-79
2022/07/16 02:08:50;;;;;;;7.40;2.00;;;16.40;99.90;;;;;;5060395;28;20311;-79
2022/07/16 02:11:39;;;;;;;3.33;1.63;;;16.40;99.90;;;;;;5061903;28;20879;-79
2022/07/16 02:14:29;;;;;;;3.72;1.60;;;16.50;99.90;;;;;;5046780;28;20539;-79
2022/07/16 02:17:18;;;;;;;5.03;1.85;;;16.50;99.90;;;;;;5063292;28;20216;-79
2022/07/16 02:20:09;;;;;;;6.20;1.75;;;16.50;99.90;;;;;;5049163;28;20224;-79
2022/07/16 02:22:57;;;;;;;5.72;2.10;;;16.50;99.90;;;;;;5062436;28;20222;-79
2022/07/16 02:25:46;;;;;;;3.60;1.75;;;16.50;99.90;;;;;;5063720;28;20224;-78
2022/07/16 02:28:35;;;;;;;6.45;1.95;;;16.40;99.90;;;;;;5066584;28;20227;-79
2022/07/16 02:31:25;;;;;;;4.32;1.90;;;16.40;99.90;;;;;;5063795;28;20231;-80
2022/07/16 02:34:14;;;;;;;7.82;2.13;;;16.50;99.90;;;;;;5060290;28;20243;-79
2022/07/16 02:37:02;;;;;;;5.15;2.20;;;16.50;99.90;;;;;;5046378;28;20216;-79
2022/07/16 02:39:51;;;;;;;2.70;1.67;;;16.50;99.90;;;;;;5058350;28;20220;-79
2022/07/16 02:42:40;;;;;;;4.53;2.00;;;16.50;99.90;;;;;;5043831;28;20231;-80
2022/07/16 02:45:29;;;;;;;4.18;1.85;;;16.50;99.90;;;;;;5041035;28;21113;-79
2022/07/16 02:48:19;;;;;;;5.10;1.95;;;16.40;99.90;;;;;;5060929;28;20259;-79
2022/07/16 02:51:08;;;;;;;4.95;1.90;;;16.50;99.90;;;;;;5060460;28;20232;-79
2022/07/16 02:53:58;;;;;;;6.13;1.77;;;16.50;99.90;;;;;;5046492;28;20232;-79
2022/07/16 02:56:46;;;;;;;5.35;1.85;;;16.50;99.90;;;;;;5059402;28;20271;-79
2022/07/16 02:59:35;;;;;;;7.05;2.03;;;16.50;99.90;;;;;;5055956;28;20235;-80
2022/07/16 03:02:24;;;;;;;2.67;1.67;;;16.50;99.90;;;;;;5040561;28;20213;-79
2022/07/16 03:05:14;;;;;;;5.30;1.88;;;16.50;99.90;;;;;;5060125;28;20745;-78
2022/07/16 03:08:03;;;;;;;4.10;2.40;;;16.40;99.90;;;;;;5046278;28;20227;-80
2022/07/16 03:10:54;;;;;;;3.03;1.90;;;16.50;99.90;;;;;;5058171;28;20230;-79
2022/07/16 03:13:43;;;;;;;6.13;1.83;;;16.50;99.90;;;;;;5066313;28;20228;-78
2022/07/16 03:16:31;;;;;;;5.15;2.05;;;16.50;99.90;;;;;;5073363;28;20223;-77
2022/07/16 03:19:20;;;;;;;5.10;1.92;;;16.40;99.90;;;;;;5046620;28;20583;-78
2022/07/16 03:22:10;;;;;;;7.43;2.10;;;16.50;99.90;;;;;;5047798;28;20220;-78
2022/07/16 03:24:59;;;;;;;6.25;2.05;;;16.30;99.90;;;;;;5060154;28;20228;-78
2022/07/16 03:27:48;;;;;;;3.88;1.90;;;16.20;99.90;;;;;;5045510;28;20220;-78
2022/07/16 03:30:36;;;;;;;5.88;2.33;;;16.20;99.90;;;;;;5060150;28;20231;-77
2022/07/16 03:33:25;;;;;;;5.38;2.08;;;16.10;99.90;;;;;;5057094;28;20217;-77
2022/07/16 03:36:14;;;;;;;7.13;2.00;;;16.20;99.90;;;;;;5056842;28;20224;-77
2022/07/16 03:39:05;;;;;;;7.43;2.47;;;16.00;99.90;;;;;;5044784;28;20254;-77
2022/07/16 03:41:54;;;;;;;3.80;1.88;;;16.10;99.90;;;;;;5041607;28;20216;-77
2022/07/16 03:44:42;;;;;;;5.32;1.85;;;16.10;99.90;;;;;;5059070;28;20710;-77
2022/07/16 03:47:31;;;;;;;4.72;2.00;;;16.30;99.90;;;;;;5045208;28;20242;-78
2022/07/16 03:50:20;;;;;;;5.95;1.67;;;16.40;99.90;;;;;;5058026;28;20599;-82
2022/07/16 03:53:09;;;;;;;5.90;1.90;;;16.50;99.90;;;;;;5061984;28;20232;-79
2022/07/16 03:55:59;;;;;;;6.55;1.92;;;16.40;99.90;;;;;;5063780;28;20835;-79
2022/07/16 03:58:47;;;;;;;4.78;1.85;;;16.50;99.90;;;;;;5064939;28;20231;-79
2022/07/16 04:01:36;;;;;;;7.07;2.17;;;16.50;99.90;;;;;;5047491;28;20563;-80
2022/07/16 04:04:24;;;;;;;7.38;1.98;;;16.60;99.90;;;;;;5048808;28;20212;-77
2022/07/16 04:07:14;;;;;;;5.53;1.73;;;16.60;99.90;;;;;;5044517;28;20972;-78
2022/07/16 04:10:03;;;;;;;5.90;1.77;;;16.60;99.90;;;;;;5056037;28;20220;-78
2022/07/16 04:12:52;;;;;;;6.13;1.90;;;16.70;99.90;;;;;;5057448;28;20236;-78
2022/07/16 04:15:41;;;;;;;6.78;2.10;;;16.70;99.90;;;;;;5058765;28;20230;-78
2022/07/16 04:18:30;;;;;;;5.20;2.22;;;16.60;99.90;;;;;;5056642;28;20223;-78
2022/07/16 04:21:18;;;;;;;4.40;1.90;;;16.60;99.90;;;;;;5055221;28;20227;-78
2022/07/16 04:24:07;;;;;;;8.05;2.15;;;16.70;99.90;;;;;;5060606;28;20219;-78
2022/07/16 04:26:55;;;;;;;4.43;1.88;;;16.50;99.90;;;;;;5059311;28;20300;-78
2022/07/16 04:29:46;;;;;;;3.28;1.90;;;16.50;99.90;;;;;;5059367;28;20216;-78
2022/07/16 04:32:34;;;;;;;4.95;1.63;;;16.70;99.90;;;;;;5055340;28;20342;-78
2022/07/16 04:35:23;;;;;;;4.15;1.92;;;16.80;99.90;;;;;;5057612;28;20221;-78
2022/07/16 04:38:13;;;;;;;4.22;2.17;;;16.50;99.90;;;;;;5060528;28;20227;-79
2022/07/16 04:41:01;;;;;;;6.15;1.75;;;16.70;99.90;;;;;;5085079;28;20289;-88
2022/07/16 04:43:50;;;;;;;6.88;2.00;;;16.80;99.90;;;;;;5059101;28;20273;-84
2022/07/16 04:46:40;;;;;;;5.78;2.20;;;16.90;99.90;;;;;;5083021;28;20219;-88
2022/07/16 04:49:29;;;;;;;4.35;2.00;;;17.10;99.90;;;;;;5047385;28;20250;-89
2022/07/16 04:52:18;;;;;;;5.05;2.10;;;17.00;99.90;;;;;;5049059;28;20237;-89
2022/07/16 04:55:08;;;;;;;6.45;2.28;;;17.20;99.90;;;;;;5086150;28;20307;-90
2022/07/16 04:57:57;;;;;;;5.22;2.28;;;17.10;99.90;;;;;;5081907;28;20686;-83
2022/07/16 05:00:46;;;;;;;7.60;2.20;;;17.20;99.90;;;;;;5062421;28;20220;-85
2022/07/16 05:03:37;;;;;;;2.90;1.70;;;17.10;99.90;;;;;;5077556;28;20220;-83
2022/07/16 05:06:26;;;;;;;3.75;1.65;;;17.20;99.90;;;;;;5051085;28;20284;-89
2022/07/16 05:09:14;;;;;;;5.65;1.92;;;17.20;99.90;;;;;;5057595;28;20313;-90
2022/07/16 05:12:03;;;;;;;10.20;2.42;;;17.20;99.90;;;;;;5055041;28;20246;-89
2022/07/16 05:14:52;;;;;;;6.28;1.90;;;17.30;99.90;;;;;;5051967;28;20263;-90
2022/07/16 05:17:41;;;;;;;4.30;1.88;;;17.40;99.90;;;;;;5086517;28;20764;-91
2022/07/16 05:20:31;;;;;;;3.55;1.50;;;17.30;99.90;;;;;;5056771;28;20227;-90
2022/07/16 05:23:21;;;;;;;4.05;1.58;;;17.20;99.90;;;;;;5053082;28;20216;-90
2022/07/16 05:26:10;;;;;;;6.15;2.17;;;17.20;99.90;;;;;;5071330;28;20219;-84
2022/07/16 05:28:59;;;;;;;8.18;2.42;;;17.40;99.90;;;;;;5067741;28;20320;-86
2022/07/16 05:31:48;;;;;;;6.28;2.50;;;17.50;99.90;;;;;;5052309;28;20303;-85
2022/07/16 05:34:37;;;;;;;12.32;9.60;;;17.60;99.90;;;;;;5057080;28;20228;-86
2022/07/16 05:37:28;;;;;;;8.18;2.00;;;17.60;99.90;;;;;;5055096;28;20216;-87
2022/07/16 05:40:17;;;;;;;6.93;1.83;;;17.70;99.90;;;;;;5070721;28;20717;-87
2022/07/16 05:43:07;;;;;;;7.95;2.50;;;17.80;99.90;;;;;;5069526;28;20224;-89
2022/07/16 05:45:56;;;;;;;4.88;1.83;;;17.80;99.90;;;;;;5064480;28;20217;-87
2022/07/16 05:48:47;;;;;;;6.78;2.00;;;17.70;99.90;;;;;;5059399;28;20312;-88
2022/07/16 05:51:36;;;;;;;7.45;2.05;;;17.80;99.90;;;;;;5066865;28;20287;-86
2022/07/16 05:54:26;;;;;;;9.43;1.75;;;17.90;99.90;;;;;;5091491;28;20219;-88
2022/07/16 05:57:15;;;;;;;6.82;1.88;;;17.90;99.90;;;;;;5066414;28;20234;-85
2022/07/16 06:00:08;;;;;;;9.80;2.67;;;17.80;99.90;;;;;;5083337;28;20220;-87
2022/07/16 06:02:59;;;;;;;7.93;2.15;;;17.90;99.90;;;;;;5082590;28;20220;-86
2022/07/16 06:05:48;;;;;;;4.75;1.90;;;18.00;99.90;;;;;;5092134;28;20221;-86
2022/07/16 06:08:37;;;;;;;7.97;1.90;;;17.90;99.90;;;;;;5062510;28;20224;-78
2022/07/16 06:11:27;;;;;;;5.82;1.95;;;17.90;99.90;;;;;;5066193;28;20795;-79
2022/07/16 06:14:16;;;;;;;6.45;1.92;;;17.90;99.60;;;;;;5056439;28;20729;-78
2022/07/16 06:17:05;;;;;;;9.27;1.83;;;18.10;99.90;;;;;;5085918;28;20238;-77
2022/07/16 06:19:53;;;;;;;4.43;1.67;;;18.00;99.90;;;;;;5085467;28;20220;-78
2022/07/16 06:22:42;;;;;;;3.72;1.80;;;18.00;99.90;;;;;;5068234;28;20330;-78
2022/07/16 06:25:33;;;;;;;5.82;2.03;;;18.00;99.90;;;;;;5083871;28;20742;-81
2022/07/16 06:28:23;;;;;;;3.15;1.85;;;18.00;99.90;;;;;;5052578;28;20228;-79
2022/07/16 06:31:11;;;;;;;5.40;1.80;;;18.10;99.70;;;;;;5066027;28;20232;-79
2022/07/16 06:34:00;;;;;;;4.93;1.80;;;17.90;99.20;;;;;;5067762;28;20350;-79
2022/07/16 06:36:48;;;;;;;6.55;1.77;;;17.90;99.60;;;;;;5054972;28;20224;-79
2022/07/16 06:39:38;;;;;;;5.32;1.88;;;18.00;99.80;;;;;;5052315;28;20305;-80
2022/07/16 06:42:27;;;;;;;6.05;1.83;;;18.20;99.90;;;;;;5063933;28;20551;-79
2022/07/16 06:45:20;;;;;;;9.57;3.00;;;18.50;99.90;;;;;;5056873;28;20213;-79
2022/07/16 06:48:09;;;;;;;4.75;1.75;;;18.60;99.40;;;;;;5053021;28;20245;-79
2022/07/16 06:50:58;;;;;;;9.27;1.83;;;18.60;99.30;;;;;;5064276;28;20220;-79
2022/07/16 06:53:47;;;;;;;8.98;1.98;;;18.70;98.80;;;;;;5067058;28;20217;-79
2022/07/16 06:56:36;;;;;;;6.65;1.70;;;18.60;99.30;;;;;;5064344;28;20710;-81
2022/07/16 06:59:24;;;;;;;4.68;1.73;;;18.70;98.60;;;;;;5066987;28;20817;-81
2022/07/16 07:02:15;;;;;;;4.25;1.95;;;18.80;98.40;;;;;;5053520;28;20228;-80
2022/07/16 07:05:04;;;;;;;3.65;1.70;;;19.00;97.80;;;;;;5049356;28;20220;-80
2022/07/16 07:07:53;;;;;;;4.20;1.65;;;19.10;96.70;;;;;;5078922;28;20220;-80
2022/07/16 07:10:42;;;;;;;9.25;1.85;;;18.90;96.50;;;;;;5065979;28;20228;-80
2022/07/16 07:13:31;;;;;;;7.20;1.67;;;19.10;97.50;;;;;;5058844;28;20227;-81
2022/07/16 07:16:19;;;;;;;6.80;1.45;;;19.50;97.30;;;;;;5072029;28;20220;-80
2022/07/16 07:19:10;;;;;;;3.13;1.40;;;19.50;95.30;;;;;;5066487;28;20316;-83
2022/07/16 07:21:59;;;;;;;4.07;1.67;;;19.40;94.70;;;;;;5050485;28;20799;-80
2022/07/16 07:24:47;;;;;;;5.90;1.63;;;19.40;94.50;;;;;;5065414;28;20234;-80
2022/07/16 07:27:36;;;;;;;6.57;1.42;;;19.50;94.00;;;;;;5079127;28;20224;-83
2022/07/16 07:30:25;;;;;;;3.90;1.67;;;19.60;94.00;;;;;;5060938;28;20241;-83
2022/07/16 07:33:14;;;;;;;4.07;1.50;;;19.80;94.10;;;;;;5068422;28;20228;-81
2022/07/16 07:36:05;;;;;;;6.53;1.60;;;19.90;94.00;;;;;;5054322;28;20311;-81
2022/07/16 07:38:54;;;;;;;8.23;1.80;;;20.00;93.60;;;;;;5069051;28;20224;-81
2022/07/16 07:41:42;;;;;;;3.08;1.40;;;20.10;92.20;;;;;;5082847;28;20208;-78
2022/07/16 07:44:31;;;;;;;4.30;1.52;;;20.10;91.70;;;;;;5061589;28;20543;-77
2022/07/16 07:47:19;;;;;;;3.97;1.67;;;20.50;93.80;;;;;;5063415;28;20219;-78
2022/07/16 07:50:09;;;;;;;5.32;1.40;;;20.60;91.30;;;;;;5064113;28;20615;-78
2022/07/16 07:52:59;;;;;;;3.40;1.52;;;20.70;92.40;;;;;;5069317;28;20216;-78
2022/07/16 07:55:48;;;;;;;3.70;1.38;;;21.00;91.60;;;;;;5050113;28;20706;-78
2022/07/16 07:58:36;;;;;;;3.00;1.42;;;21.30;91.40;;;;;;5050001;28;20580;-77
2022/07/16 08:01:25;;;;;;;4.97;1.40;;;22.10;90.00;;;;;;5043958;28;20339;-78
2022/07/16 08:04:14;;;;;;;4.60;1.23;;;22.50;85.90;;;;;;5057472;28;20220;-78
2022/07/16 08:07:03;;;;;;;4.72;1.58;;;22.90;80.90;;;;;;5042333;28;20228;-78
2022/07/16 08:09:53;;;;;;;3.50;1.10;;;23.30;77.80;;;;;;5058760;28;20220;-80
2022/07/16 08:12:42;;;;;;;4.53;1.33;;;24.40;78.20;;;;;;5040297;28;20232;-78
2022/07/16 08:15:31;;;;;;;2.00;0.90;;;24.40;71.80;;;;;;5061288;28;20221;-77
2022/07/16 08:18:20;;;;;;;4.93;1.60;;;24.20;73.70;;;;;;5064068;28;20228;-77
2022/07/16 08:21:09;;;;;;;2.08;0.98;;;23.90;71.10;;;;;;5068290;28;20228;-77
2022/07/16 08:27:06;;;;;;;13.18;1.50;;;23.40;68.70;;;;;;5038150;28;20212;-77
2022/07/16 08:29:55;;;;;;;5.63;1.30;;;23.00;72.00;;;;;;5062149;28;20220;-77
2022/07/16 08:32:43;;;;;;;2.85;1.63;;;23.10;73.80;;;;;;5066446;28;20224;-77
2022/07/16 08:35:32;;;;;;;2.35;0.80;;;22.90;70.80;;;;;;5061637;28;20607;-77
2022/07/16 08:38:20;;;;;;;3.60;0.90;;;23.30;75.30;;;;;;5067052;28;20231;-77
2022/07/16 08:41:10;;;;;;;5.07;1.10;;;23.80;71.50;;;;;;5060670;28;20231;-78
2022/07/16 08:44:00;;;;;;;3.72;1.15;;;23.50;69.10;;;;;;5046110;28;20224;-78
2022/07/16 08:46:50;;;;;;;2.88;1.20;;;23.80;70.00;;;;;;5052298;28;20568;-77
2022/07/16 08:49:39;;;;;;;3.70;1.20;;;23.80;68.90;;;;;;5066748;28;20224;-78
2022/07/16 08:52:29;;;;;;;3.05;1.10;;;24.60;68.70;;;;;;5073659;28;20224;-77
2022/07/16 08:55:18;;;;;;;2.25;1.20;;;24.80;69.30;;;;;;5062089;28;20235;-77
2022/07/16 08:58:09;;;;;;;2.33;1.40;;;25.00;66.60;;;;;;5062648;28;20292;-78
2022/07/16 09:00:59;;;;;;;2.58;1.13;;;25.10;66.00;;;;;;5059492;28;20234;-77
2022/07/16 09:03:48;;;;;;;3.65;1.50;;;25.30;68.30;;;;;;5045124;28;20711;-77
2022/07/16 09:06:37;;;;;;;4.40;1.08;;;;;;;;;;5063976;28;20608;-77
2022/07/16 09:09:26;;;;;;;5.18;1.48;;;26.40;59.90;;;;;;5061986;28;20257;-77
2022/07/16 09:12:34;;;;;;;2.85;1.40;;;26.80;60.00;;;;;;5053063;28;20743;-77
2022/07/16 09:15:27;;;;;;;4.70;1.65;;;28.20;60.30;;;;;;5064830;28;20594;-77
2022/07/16 09:18:21;;;;;;;6.82;1.33;;;29.50;56.90;;;;;;5048860;28;20703;-77
2022/07/16 09:21:10;;;;;;;3.00;1.35;;;28.70;54.70;;;;;;5064474;28;20227;-76
2022/07/16 09:23:58;;;;;;;2.50;1.27;;;27.60;56.40;;;;;;5062763;28;20785;-76
2022/07/16 09:27:01;;;;;;;1.90;1.20;;;28.20;55.90;;;;;;5049030;28;20220;-76
2022/07/16 09:29:52;;;;;;;2.58;1.50;;;29.30;54.00;;;;;;5063340;28;20221;-77
2022/07/16 09:32:40;;;;;;;6.40;1.33;;;29.60;55.90;;;;;;5049165;28;20224;-77
2022/07/16 09:35:30;;;;;;;3.17;1.40;;;28.20;55.80;;;;;;5075633;28;20291;-78
2022/07/16 09:38:19;;;;;;;3.33;1.58;;;29.20;55.10;;;;;;5048403;28;20227;-78
2022/07/16 09:41:13;;;;;;;3.35;1.42;;;27.60;54.70;;;;;;5048268;28;20219;-78
2022/07/16 09:44:02;;;;;;;6.85;1.30;;;27.20;56.90;;;;;;5066446;28;20219;-78
2022/07/16 09:47:03;;;;;;;3.17;1.27;;;27.80;58.60;;;;;;5050450;28;20591;-78
2022/07/16 09:49:53;;;;;;;4.55;1.20;;;27.20;57.70;;;;;;5062719;28;20298;-79
2022/07/16 09:52:46;;;;;;;2.85;1.20;;;27.80;58.30;;;;;;5047320;28;20235;-79
2022/07/16 09:55:54;;;;;;;4.57;1.65;;;27.40;57.90;;;;;;5050437;28;21046;-79
2022/07/16 09:58:47;;;;;;;4.15;1.48;;;28.00;55.00;;;;;;5056569;28;20724;-80
2022/07/16 10:01:36;;;;;;;3.75;1.73;;;29.00;52.90;;;;;;5067175;28;20310;-77
2022/07/16 10:04:25;;;;;;;5.78;1.83;;;28.40;55.60;;;;;;5049202;28;21028;-80
2022/07/16 10:07:16;;;;;;;3.05;1.65;;;27.40;55.40;;;;;;5070473;28;20322;-79
2022/07/16 10:10:07;;;;;;;2.75;1.30;;;29.20;54.50;;;;;;5063897;28;20235;-79
2022/07/16 10:12:56;;;;;;;1.75;1.20;;;28.90;54.20;;;;;;5066569;28;20220;-79
2022/07/16 10:15:47;;;;;;;2.35;1.33;;;26.40;54.90;;;;;;5067456;28;20215;-79
2022/07/16 10:18:38;;;;;;;3.95;1.15;;;26.70;57.10;;;;;;5068745;28;20571;-79
2022/07/16 10:21:27;;;;;;;7.35;1.33;;;28.20;53.30;;;;;;5064817;28;20223;-79
2022/07/16 10:24:16;;;;;;;3.28;1.15;;;26.80;55.00;;;;;;5064645;28;20222;-79
2022/07/16 10:27:21;;;;;;;2.90;1.42;;;26.70;56.30;;;;;;5055646;28;20331;-79
2022/07/16 10:30:13;;;;;;;4.00;1.27;;;26.90;59.10;;;;;;5064370;28;20212;-79
2022/07/16 10:33:14;;;;;;;4.90;1.20;;;26.90;57.40;;;;;;5067652;28;20232;-79
2022/07/16 10:36:06;;;;;;;6.05;1.38;;;27.30;57.10;;;;;;5044212;28;20325;-79
2022/07/16 10:39:06;;;;;;;2.92;1.10;;;26.00;54.90;;;;;;5067821;28;20224;-79
2022/07/16 10:41:57;;;;;;;3.42;1.13;;;25.30;57.30;;;;;;5066530;28;20311;-79
2022/07/16 10:44:49;;;;;;;2.65;1.20;;;25.10;59.80;;;;;;5052799;28;20582;-79
2022/07/16 10:47:50;;;;;;;4.72;1.33;;;25.40;58.90;;;;;;5065068;28;20227;-78
2022/07/16 10:50:39;;;;;;;6.47;1.35;;;26.50;57.70;;;;;;5070976;28;20219;-79
2022/07/16 10:53:28;;;;;;;5.68;1.67;;;28.40;54.00;;;;;;5071567;28;20224;-79
2022/07/16 10:56:32;;;;;;;6.38;1.73;;;28.60;53.50;;;;;;5057726;28;20303;-79
2022/07/16 10:59:22;;;;;;;2.58;1.30;;;28.00;54.90;;;;;;5068928;28;20219;-79
2022/07/16 11:02:18;;;;;;;2.17;1.23;;;26.60;55.90;;;;;;5074335;28;20621;-78
2022/07/16 11:05:15;;;;;;;2.45;1.45;;;26.00;58.00;;;;;;5060234;28;20224;-80
2022/07/16 11:08:08;;;;;;;3.28;1.30;;;25.50;58.10;;;;;;5053611;28;20212;-79
2022/07/16 11:10:57;;;;;;;3.33;1.90;;;24.60;58.90;;;;;;5072729;28;20220;-78
2022/07/16 11:13:47;;;;;;;1.83;1.30;;;24.40;60.20;;;;;;5069503;28;20230;-79
2022/07/16 11:16:36;;;;;;;2.33;1.30;;;23.80;61.10;;;;;;5060506;28;20224;-78
2022/07/16 11:19:27;;;;;;;2.35;1.17;;;23.70;62.50;;;;;;5060856;28;20223;-78
2022/07/16 11:22:17;;;;;;;3.50;1.20;;;23.80;63.60;;;;;;5067634;28;20914;-78
2022/07/16 11:25:06;;;;;;;4.65;1.50;;;23.70;63.20;;;;;;5070262;28;20297;-79
2022/07/16 11:28:01;;;;;;;3.63;1.10;;;23.30;64.00;;;;;;5056608;28;20235;-79
2022/07/16 11:31:05;;;;;;;5.13;1.35;;;23.40;64.60;;;;;;5064466;28;20224;-79
2022/07/16 11:34:11;;;;;;;2.45;1.02;;;23.60;64.50;;;;;;5052245;28;20216;-79
2022/07/16 11:37:01;;;;;;;4.32;1.20;;;23.40;64.20;;;;;;5055408;28;20226;-80
2022/07/16 11:39:59;;;;;;;5.88;1.40;;;23.40;63.50;;;;;;5067267;28;20622;-79
2022/07/16 11:42:58;;;;;;;1.77;1.10;;;23.60;65.70;;;;;;5050159;28;20228;-79
2022/07/16 11:45:47;;;;;;;3.40;1.58;;;23.30;64.80;;;;;;5065168;28;20217;-80
2022/07/16 11:48:37;;;;;;;2.03;1.10;;;23.40;66.50;;;;;;5081117;28;20248;-78
2022/07/16 11:51:28;;;;;;;2.67;1.40;;;23.30;66.50;;;;;;5066668;28;20240;-79
2022/07/16 11:54:18;;;;;;;1.77;1.08;;;23.30;66.70;;;;;;5067515;28;20810;-78
2022/07/16 11:57:10;;;;;;;2.50;0.98;;;23.10;65.10;;;;;;5070270;28;20213;-78
2022/07/16 11:59:59;;;;;;;2.20;1.25;;;22.90;64.80;;;;;;5064449;28;20212;-78
2022/07/16 12:02:55;;;;;;;3.30;1.52;;;22.90;65.80;;;;;;5064022;28;20212;-79
2022/07/16 12:05:44;;;;;;;2.58;1.40;;;23.30;66.70;;;;;;5066412;28;20212;-79
2022/07/16 12:08:36;;;;;;;3.00;1.40;;;23.50;66.30;;;;;;5077929;28;20224;-79
2022/07/16 12:11:32;;;;;;;6.53;1.13;;;23.40;64.90;;;;;;5066456;28;20227;-79
2022/07/16 12:14:20;;;;;;;2.90;1.20;;;23.70;66.40;;;;;;5065766;28;20220;-79
2022/07/16 12:17:25;;;;;;;2.65;1.35;;;23.50;63.60;;;;;;5050830;28;20212;-79
2022/07/16 12:20:19;;;;;;;1.48;1.15;;;24.00;65.30;;;;;;5064853;28;20224;-79
2022/07/16 12:23:32;;;;;;;3.22;1.48;;;24.30;63.20;;;;;;5052789;28;20712;-79
2022/07/16 12:26:30;;;;;;;6.00;1.50;;;24.40;63.50;;;;;;5053055;28;20227;-79
2022/07/16 12:29:21;;;;;;;1.80;1.25;;;24.60;64.60;;;;;;5070084;28;20231;-79
2022/07/16 12:32:10;;;;;;;3.83;1.15;;;24.40;61.80;;;;;;5064684;28;20225;-79
2022/07/16 12:34:58;;;;;;;3.28;1.15;;;23.60;62.40;;;;;;5049239;28;20220;-79
2022/07/16 12:37:47;;;;;;;1.70;1.10;;;23.10;63.30;;;;;;5048443;28;20227;-79
2022/07/16 12:40:36;;;;;;;2.65;1.25;;;22.80;64.20;;;;;;5065470;28;20255;-79
2022/07/16 12:43:24;;;;;;;2.67;1.38;;;22.70;65.00;;;;;;5047167;28;20227;-79
2022/07/16 12:46:15;;;;;;;5.13;1.90;;;22.50;65.20;;;;;;5061574;28;20227;-79
2022/07/16 12:49:06;;;;;;;6.70;1.42;;;22.30;66.40;;;;;;5071794;28;20268;-79
2022/07/16 12:51:59;;;;;;;1.35;1.10;;;;;;;;;;5065598;28;20656;-78
2022/07/16 13:01:02;;;;;;;4.13;1.30;;;21.60;69.10;;;;;;5068665;28;20381;-79
2022/07/16 13:03:54;;;;;;;4.90;1.33;;;21.40;70.40;;;;;;5066055;28;20216;-79
2022/07/16 13:06:43;;;;;;;9.18;1.85;;;21.70;85.00;;;;;;5067475;28;20737;-79
2022/07/16 13:09:33;;;;;;;4.07;1.50;;;21.60;90.60;;;;;;5051182;28;20220;-79
2022/07/16 13:12:22;;;;;;;6.85;1.63;;;21.30;99.30;;;;;;5067158;28;20539;-82
2022/07/16 13:15:11;;;;;;;7.95;2.75;;;21.00;99.90;;;;;;5063980;28;20222;-79
2022/07/16 13:18:00;;;;;;;5.47;1.92;;;20.60;99.90;;;;;;5053010;28;20228;-79
2022/07/16 13:20:50;;;;;;;3.65;1.80;;;20.10;99.90;;;;;;5085672;28;20220;-79
2022/07/16 13:23:39;;;;;;;10.95;2.80;;;19.70;99.90;;;;;;5088155;28;20257;-80
2022/07/16 13:26:30;;;;;;;6.80;2.65;;;19.10;99.90;;;;;;5078546;28;20305;-78
2022/07/16 13:29:21;;;;;;;4.57;1.90;;;18.90;99.90;;;;;;5055558;28;20220;-79
2022/07/16 13:32:09;;;;;;;6.95;2.22;;;18.80;99.90;;;;;;5051475;28;20224;-78
2022/07/16 13:34:58;;;;;;;3.15;1.67;;;18.50;99.90;;;;;;5061583;28;20232;-78
2022/07/16 13:37:48;;;;;;;6.25;2.28;;;18.50;99.90;;;;;;5074741;28;20204;-77
2022/07/16 13:40:37;;;;;;;5.80;2.15;;;18.20;99.90;;;;;;5097902;28;20231;-79
2022/07/16 13:43:26;;;;;;;3.10;1.90;;;18.20;99.90;;;;;;5099672;28;20222;-78
2022/07/16 13:46:15;;;;;;;2.95;1.65;;;18.10;99.90;;;;;;5074876;28;20250;-78
2022/07/16 13:49:04;;;;;;;4.32;2.00;;;18.10;99.90;;;;;;5065757;28;20212;-78
2022/07/16 13:51:53;;;;;;;3.88;2.13;;;18.20;99.90;;;;;;5065437;28;20217;-78
2022/07/16 13:54:47;;;;;;;3.22;1.75;;;18.30;99.90;;;;;;5062281;28;20219;-77
2022/07/16 14:00:45;;;;;;;3.70;1.70;;;18.50;99.90;;;;;;5052039;28;20215;-78
2022/07/16 14:03:34;;;;;;;3.55;2.00;;;18.40;99.90;;;;;;5063372;28;20212;-78
2022/07/16 14:06:23;;;;;;;2.67;1.80;;;18.40;99.90;;;;;;5048611;28;20223;-78
2022/07/16 14:09:13;;;;;;;2.70;1.77;;;18.40;99.90;;;;;;5071938;28;20224;-79
2022/07/16 14:12:03;;;;;;;4.63;1.90;;;18.30;99.90;;;;;;5058723;28;20223;-79
2022/07/16 14:14:51;;;;;;;4.30;1.80;;;18.30;99.90;;;;;;5063425;28;20220;-78
2022/07/16 14:17:41;;;;;;;3.28;1.70;;;18.20;99.90;;;;;;5063010;28;20278;-80
2022/07/16 14:20:29;;;;;;;2.67;1.58;;;18.30;99.90;;;;;;5054216;28;20228;-78
2022/07/16 14:23:20;;;;;;;3.47;1.70;;;18.20;99.90;;;;;;5040142;28;20228;-78
2022/07/16 14:26:10;;;;;;;5.55;1.80;;;18.00;99.90;;;;;;5079906;28;20280;-78
2022/07/16 14:29:00;;;;;;;5.38;1.70;;;18.20;99.90;;;;;;5049238;28;20752;-79
2022/07/16 14:31:49;;;;;;;2.95;1.70;;;18.20;99.90;;;;;;5051422;28;20694;-79
2022/07/16 14:34:38;;;;;;;5.10;1.60;;;18.40;99.90;;;;;;5052756;28;20556;-79
2022/07/16 14:37:26;;;;;;;3.17;1.58;;;18.50;99.90;;;;;;5050865;28;20357;-79
2022/07/16 14:40:16;;;;;;;2.60;1.63;;;18.60;99.90;;;;;;5050360;28;20312;-79
2022/07/16 14:43:07;;;;;;;4.55;2.00;;;19.00;99.90;;;;;;5069194;28;20220;-78
2022/07/16 14:45:57;;;;;;;3.80;1.63;;;18.90;99.90;;;;;;5065924;28;20216;-77
2022/07/16 14:48:46;;;;;;;2.92;1.60;;;19.00;99.90;;;;;;5049818;28;20208;-78
2022/07/16 14:51:35;;;;;;;3.75;1.77;;;18.80;99.90;;;;;;5066919;28;21023;-80
2022/07/16 14:54:24;;;;;;;2.65;1.98;;;19.00;99.90;;;;;;5068702;28;20220;-78
2022/07/16 14:57:13;;;;;;;3.22;2.10;;;19.00;99.90;;;;;;5055610;28;20238;-79
2022/07/16 15:00:02;;;;;;;3.08;1.80;;;19.20;99.90;;;;;;5080945;28;20220;-78
2022/07/16 15:02:52;;;;;;;5.20;1.73;;;18.90;99.90;;;;;;5064986;28;20213;-78